Naples, Florida
Current Conditions -  °F | °C
As of 9:53 PM on Saturday 25 Oct 2014 (Local Time) from KAPF Reporting Station
Clear Clear  
Wind Chill: 22°   Ceiling: Unl
Heat Index: 22°   Visibility: 10mi
Dew Point: 17°   Wind: 0mph
Humidity: 75%   Direction: NA
Pressure: 29.96"   Gusts: NA
Location:  26.14°N, 81.79°W
Report Text: KAPF 260153Z 00000KT 10SM CLR 22/17 A2996 RMK AO2 SLP144 T02170172
Loading
Personal Weather Stations






























Interactive Weather Map New forecast layout! Learn more

10-Day Weather Forecast

Advertisements
Track Severe Weather on mobile